createdAt,value
2023-02-09T00:00:02.584Z,-6.85
2023-02-09T00:02:43.267Z,-6.90
2023-02-09T00:05:13.112Z,-6.97
2023-02-09T00:07:41.526Z,-7.01
2023-02-09T00:10:10.550Z,-7.05
2023-02-09T00:12:56.052Z,-7.10
2023-02-09T00:15:24.629Z,-7.11
2023-02-09T00:17:54.590Z,-7.12
2023-02-09T00:20:23.054Z,-7.20
2023-02-09T00:22:51.402Z,-7.21
2023-02-09T00:25:20.288Z,-7.18
2023-02-09T00:27:48.695Z,-7.19
2023-02-09T00:30:16.905Z,-7.24
2023-02-09T00:32:47.072Z,-7.23
2023-02-09T00:35:17.531Z,-7.21
2023-02-09T00:37:46.359Z,-7.23
2023-02-09T00:40:14.958Z,-7.25
2023-02-09T00:42:43.122Z,-7.31
2023-02-09T00:45:11.867Z,-7.31
2023-02-09T00:47:40.136Z,-7.37
2023-02-09T00:50:09.267Z,-7.42
2023-02-09T00:52:38.830Z,-7.44
2023-02-09T00:55:07.506Z,-7.46
2023-02-09T00:57:36.232Z,-7.42
2023-02-09T01:00:06.534Z,-7.41
2023-02-09T01:02:34.873Z,-7.42
2023-02-09T01:05:03.473Z,-7.42
2023-02-09T01:07:32.009Z,-7.43
2023-02-09T01:10:03.109Z,-7.50
2023-02-09T01:12:32.086Z,-7.60
2023-02-09T01:15:02.259Z,-7.58
2023-02-09T01:17:30.760Z,-7.55
2023-02-09T01:19:59.236Z,-7.61
2023-02-09T01:22:27.546Z,-7.61
2023-02-09T01:24:55.906Z,-7.66
2023-02-09T01:27:25.618Z,-7.63
2023-02-09T01:29:53.938Z,-7.66
2023-02-09T01:32:22.081Z,-7.69
2023-02-09T01:34:52.031Z,-7.75
2023-02-09T01:37:20.546Z,-7.78
2023-02-09T01:39:49.383Z,-7.91
2023-02-09T01:42:20.617Z,-7.98
2023-02-09T01:45:20.276Z,-8.01
2023-02-09T01:47:51.679Z,-8.04
2023-02-09T01:50:21.090Z,-8.05
2023-02-09T01:52:50.892Z,-8.08
2023-02-09T01:55:23.862Z,-8.09
2023-02-09T01:57:56.000Z,-8.15
2023-02-09T02:00:26.699Z,-8.18
2023-02-09T02:02:58.672Z,-8.24
2023-02-09T02:05:28.258Z,-8.29
2023-02-09T02:08:02.525Z,-8.37
2023-02-09T02:10:31.142Z,-8.41
2023-02-09T02:12:59.540Z,-8.37
2023-02-09T02:15:34.388Z,-8.36
2023-02-09T02:18:24.600Z,-8.37
2023-02-09T02:21:16.177Z,-8.37
2023-02-09T02:23:53.864Z,-8.36
2023-02-09T02:26:40.052Z,-8.35
2023-02-09T02:29:26.091Z,-8.35
2023-02-09T02:32:13.836Z,-8.40
2023-02-09T02:34:48.473Z,-8.42
2023-02-09T02:37:29.418Z,-8.47
2023-02-09T02:40:11.581Z,-8.51
2023-02-09T02:42:53.008Z,-8.52
2023-02-09T02:45:34.081Z,-8.54
2023-02-09T02:48:13.206Z,-8.58
2023-02-09T02:50:47.820Z,-8.64
2023-02-09T02:53:19.348Z,-8.70
2023-02-09T02:55:50.328Z,-8.72
2023-02-09T02:58:20.878Z,-8.74
2023-02-09T03:00:52.793Z,-8.73
2023-02-09T03:03:24.791Z,-8.71
2023-02-09T03:05:54.262Z,-8.70
2023-02-09T03:08:22.599Z,-8.68
2023-02-09T03:10:51.012Z,-8.68
2023-02-09T03:13:38.587Z,-8.66
2023-02-09T03:16:29.273Z,-8.66
2023-02-09T03:19:09.465Z,-8.71
2023-02-09T03:21:47.808Z,-8.72
2023-02-09T03:24:25.655Z,-8.74
2023-02-09T03:26:58.913Z,-8.80
2023-02-09T03:29:28.998Z,-8.84
2023-02-09T03:31:58.244Z,-8.83
2023-02-09T03:34:28.682Z,-8.84
2023-02-09T03:36:58.682Z,-8.85
2023-02-09T03:39:27.048Z,-8.89
2023-02-09T03:41:55.443Z,-8.93
2023-02-09T03:44:30.222Z,-8.96
2023-02-09T03:47:00.516Z,-9.00
2023-02-09T03:49:33.634Z,-9.04
2023-02-09T03:52:02.088Z,-9.06
2023-02-09T03:54:30.759Z,-9.07
2023-02-09T03:57:01.153Z,-9.09
2023-02-09T03:59:29.633Z,-9.14
2023-02-09T04:01:59.709Z,-9.15
2023-02-09T04:04:29.336Z,-9.16
2023-02-09T04:06:58.150Z,-9.20
2023-02-09T04:09:27.135Z,-9.19
2023-02-09T04:11:56.069Z,-9.19
2023-02-09T04:14:24.730Z,-9.19
2023-02-09T04:16:53.090Z,-9.22
2023-02-09T04:19:21.773Z,-9.27
2023-02-09T04:21:52.804Z,-9.29
2023-02-09T04:24:28.893Z,-9.27
2023-02-09T04:26:57.266Z,-9.30
2023-02-09T04:29:25.939Z,-9.32
2023-02-09T04:31:54.211Z,-9.35
2023-02-09T04:34:24.265Z,-9.41
2023-02-09T04:36:53.992Z,-9.40
2023-02-09T04:39:22.098Z,-9.39
2023-02-09T04:41:50.430Z,-9.39
2023-02-09T04:44:18.665Z,-9.38
2023-02-09T04:46:47.159Z,-9.38
2023-02-09T04:49:15.861Z,-9.33
2023-02-09T04:51:44.641Z,-9.30
2023-02-09T04:54:14.400Z,-9.32
2023-02-09T04:56:42.762Z,-9.34
2023-02-09T04:59:29.013Z,-9.34
2023-02-09T05:01:57.336Z,-9.36
2023-02-09T05:04:26.172Z,-9.37
2023-02-09T05:06:54.468Z,-9.36
2023-02-09T05:09:24.798Z,-9.37
2023-02-09T05:11:52.982Z,-9.39
2023-02-09T05:14:22.751Z,-9.46
2023-02-09T05:16:51.202Z,-9.53
2023-02-09T05:19:19.607Z,-9.54
2023-02-09T05:21:48.135Z,-9.54
2023-02-09T05:24:16.468Z,-9.57
2023-02-09T05:26:46.239Z,-9.56
2023-02-09T05:29:14.781Z,-9.56
2023-02-09T05:31:43.260Z,-9.56
2023-02-09T05:34:12.088Z,-9.58
2023-02-09T05:36:40.443Z,-9.62
2023-02-09T05:39:08.805Z,-9.59
2023-02-09T05:41:54.440Z,-9.59
2023-02-09T05:44:24.248Z,-9.64
2023-02-09T05:46:52.592Z,-9.67
2023-02-09T05:49:21.287Z,-9.61
2023-02-09T05:51:49.698Z,-9.63
2023-02-09T05:54:18.109Z,-9.65
2023-02-09T05:56:46.547Z,-9.68
2023-02-09T05:59:15.101Z,-9.70
2023-02-09T06:01:44.929Z,-9.70
2023-02-09T06:04:13.475Z,-9.70
2023-02-09T06:06:41.859Z,-9.67
2023-02-09T06:09:10.542Z,-9.64
2023-02-09T06:11:38.886Z,-9.55
2023-02-09T06:14:07.191Z,-9.49
2023-02-09T06:16:35.396Z,-9.41
2023-02-09T06:19:05.517Z,-9.33
2023-02-09T06:21:33.772Z,-9.13
2023-02-09T06:24:02.072Z,-8.95
2023-02-09T06:26:30.380Z,-8.83
2023-02-09T06:28:58.713Z,-8.74
2023-02-09T06:31:27.236Z,-8.62
2023-02-09T06:33:55.808Z,-8.52
2023-02-09T06:36:25.450Z,-8.51
2023-02-09T06:38:53.851Z,-8.46
2023-02-09T06:41:22.282Z,-8.45
2023-02-09T06:43:50.404Z,-8.36
2023-02-09T06:46:18.795Z,-8.28
2023-02-09T06:48:47.256Z,-8.28
2023-02-09T06:51:17.880Z,-8.30
2023-02-09T06:53:48.134Z,-8.31
2023-02-09T06:56:16.646Z,-8.31
2023-02-09T06:58:44.811Z,-8.32
2023-02-09T07:01:16.027Z,-8.34
2023-02-09T07:03:45.216Z,-8.28
2023-02-09T07:06:16.387Z,-8.15
2023-02-09T07:08:45.646Z,-8.10
2023-02-09T07:11:17.488Z,-8.08
2023-02-09T07:13:46.940Z,-8.02
2023-02-09T07:16:15.646Z,-7.97
2023-02-09T07:18:44.466Z,-7.95
2023-02-09T07:21:15.782Z,-7.92
2023-02-09T07:23:43.931Z,-7.87
2023-02-09T07:26:16.879Z,-7.76
2023-02-09T07:28:46.008Z,-7.68
2023-02-09T07:31:16.129Z,-7.51
2023-02-09T07:33:44.723Z,-7.41
2023-02-09T07:36:15.569Z,-7.34
2023-02-09T07:38:45.532Z,-7.29
2023-02-09T07:41:18.291Z,-7.24
2023-02-09T07:43:47.227Z,-7.16
2023-02-09T07:46:17.842Z,-7.09
2023-02-09T07:48:47.152Z,-6.98
2023-02-09T07:51:16.273Z,-6.89
2023-02-09T07:53:45.088Z,-6.78
2023-02-09T07:56:13.554Z,-6.63
2023-02-09T07:58:44.117Z,-6.53
2023-02-09T08:01:13.999Z,-6.40
2023-02-09T08:03:45.079Z,-6.25
2023-02-09T08:06:21.799Z,-6.09
2023-02-09T08:08:52.328Z,-5.95
2023-02-09T08:11:24.484Z,-5.82
2023-02-09T08:13:55.917Z,-5.68
2023-02-09T08:16:29.935Z,-5.56
2023-02-09T08:19:01.397Z,-5.41
2023-02-09T08:21:30.165Z,-5.28
2023-02-09T08:24:00.479Z,-5.14
2023-02-09T08:26:29.200Z,-5.02
2023-02-09T08:28:59.399Z,-4.89
2023-02-09T08:31:27.842Z,-4.77
2023-02-09T08:33:56.309Z,-4.63
2023-02-09T08:36:25.121Z,-4.46
2023-02-09T08:38:53.470Z,-4.29
2023-02-09T08:41:24.036Z,-4.13
2023-02-09T08:43:53.042Z,-3.95
2023-02-09T08:46:22.966Z,-3.79
2023-02-09T08:48:51.531Z,-3.65
2023-02-09T08:51:20.259Z,-3.45
2023-02-09T08:53:52.691Z,-3.32
2023-02-09T08:56:22.504Z,-3.25
2023-02-09T08:58:51.428Z,-3.21
2023-02-09T09:01:19.902Z,-3.18
2023-02-09T09:03:49.905Z,-3.05
2023-02-09T09:06:18.612Z,-3.02
2023-02-09T09:08:46.972Z,-2.92
2023-02-09T09:11:16.169Z,-2.77
2023-02-09T09:13:44.615Z,-2.60
2023-02-09T09:16:17.380Z,-2.43
2023-02-09T09:18:46.222Z,-2.11
2023-02-09T09:21:17.631Z,-2.05
2023-02-09T09:23:47.080Z,-2.09
2023-02-09T09:26:16.591Z,-2.15
2023-02-09T09:28:45.530Z,-2.14
2023-02-09T09:31:15.776Z,-2.11
2023-02-09T09:33:44.472Z,-2.09
2023-02-09T09:36:14.707Z,-2.03
2023-02-09T09:38:45.655Z,-2.00
2023-02-09T09:41:24.741Z,-1.96
2023-02-09T09:43:54.907Z,-1.95
2023-02-09T09:46:32.533Z,-1.82
2023-02-09T09:49:01.961Z,-0.52
2023-02-09T09:51:38.205Z,1.22
2023-02-09T09:54:14.098Z,0.76
2023-02-09T09:56:42.676Z,0.61
2023-02-09T09:59:17.998Z,1.43
2023-02-09T10:01:50.547Z,1.89
2023-02-09T10:04:20.977Z,1.23
2023-02-09T10:06:57.688Z,0.92
2023-02-09T10:09:36.999Z,1.59
2023-02-09T10:12:16.762Z,1.17
2023-02-09T10:14:45.085Z,0.55
2023-02-09T10:17:13.423Z,0.51
2023-02-09T10:19:42.838Z,0.37
2023-02-09T10:22:14.065Z,0.18
2023-02-09T10:24:43.718Z,-0.01
2023-02-09T10:27:16.477Z,-0.14
2023-02-09T10:29:44.862Z,-0.13
2023-02-09T10:32:18.016Z,-0.01
2023-02-09T10:34:49.119Z,0.36
2023-02-09T10:37:21.810Z,0.51
2023-02-09T10:40:01.553Z,0.75
2023-02-09T10:42:32.710Z,1.03
2023-02-09T10:45:08.273Z,1.19
2023-02-09T10:47:36.604Z,1.29
2023-02-09T10:50:25.900Z,1.35
2023-02-09T10:53:00.248Z,1.37
2023-02-09T10:55:36.483Z,1.39
2023-02-09T10:58:16.246Z,1.44
2023-02-09T11:00:51.817Z,1.45
2023-02-09T11:03:22.763Z,1.48
2023-02-09T11:05:59.773Z,1.49
2023-02-09T11:08:39.703Z,1.49
2023-02-09T11:11:14.898Z,1.50
2023-02-09T11:13:43.617Z,1.53
2023-02-09T11:16:44.611Z,1.60
2023-02-09T11:19:32.165Z,1.67
2023-02-09T11:22:09.457Z,1.79
2023-02-09T11:24:59.904Z,1.85
2023-02-09T11:27:44.471Z,1.76
2023-02-09T11:30:33.224Z,1.78
2023-02-09T11:33:11.742Z,2.71
2023-02-09T11:35:51.967Z,3.05
2023-02-09T11:38:29.315Z,2.82
2023-02-09T11:40:59.731Z,2.50
2023-02-09T11:43:36.984Z,2.23
2023-02-09T11:46:13.226Z,2.20
2023-02-09T11:48:48.149Z,3.46
2023-02-09T11:51:20.723Z,6.51
2023-02-09T11:53:55.980Z,8.29
2023-02-09T11:56:26.552Z,8.07
2023-02-09T11:59:02.088Z,7.34
2023-02-09T12:01:42.337Z,6.07
2023-02-09T12:04:21.018Z,5.15
2023-02-09T12:06:52.347Z,4.73
2023-02-09T12:09:35.746Z,4.28
2023-02-09T12:12:15.193Z,3.94
2023-02-09T12:14:58.606Z,3.81
2023-02-09T12:17:36.204Z,4.44
2023-02-09T12:20:05.755Z,5.95
2023-02-09T12:22:58.833Z,9.04
2023-02-09T12:26:01.114Z,11.78
2023-02-09T12:28:42.499Z,13.32
2023-02-09T12:31:14.958Z,13.85
2023-02-09T12:34:22.667Z,11.97
2023-02-09T12:37:20.070Z,9.99
2023-02-09T12:40:19.423Z,10.44
2023-02-09T12:43:06.940Z,11.22
2023-02-09T12:45:37.974Z,11.32
2023-02-09T12:48:17.747Z,9.82
2023-02-09T12:50:50.572Z,8.51
2023-02-09T12:53:50.230Z,9.49
2023-02-09T12:56:28.625Z,9.99
2023-02-09T12:59:17.073Z,8.33
2023-02-09T13:02:11.210Z,6.97
2023-02-09T13:04:50.156Z,6.08
2023-02-09T13:07:28.291Z,5.77
2023-02-09T13:10:00.125Z,6.09
2023-02-09T13:12:37.318Z,6.47
2023-02-09T13:15:14.117Z,6.06
2023-02-09T13:17:50.520Z,5.37
2023-02-09T13:20:58.842Z,4.81
2023-02-09T13:23:44.620Z,4.41
2023-02-09T13:26:21.665Z,4.17
2023-02-09T13:28:50.442Z,4.00
2023-02-09T13:31:27.661Z,3.89
2023-02-09T13:34:01.891Z,3.80
2023-02-09T13:36:40.944Z,3.67
2023-02-09T13:39:10.183Z,3.64
2023-02-09T13:41:40.969Z,3.73
2023-02-09T13:44:23.512Z,3.74
2023-02-09T13:46:54.732Z,3.68
2023-02-09T13:49:24.729Z,3.59
2023-02-09T13:52:13.722Z,3.51
2023-02-09T13:54:43.498Z,3.60
2023-02-09T13:57:19.311Z,3.60
2023-02-09T13:59:48.910Z,3.50
2023-02-09T14:02:21.295Z,3.42
2023-02-09T14:04:55.958Z,3.34
2023-02-09T14:07:32.155Z,3.26
2023-02-09T14:10:04.256Z,3.12
2023-02-09T14:12:55.770Z,3.01
2023-02-09T14:15:46.991Z,2.94
2023-02-09T14:18:31.044Z,2.79
2023-02-09T14:21:01.399Z,2.66
2023-02-09T14:23:35.440Z,2.58
2023-02-09T14:26:06.495Z,2.44
2023-02-09T14:28:36.799Z,2.32
2023-02-09T14:31:07.374Z,2.25
2023-02-09T14:33:38.909Z,2.20
2023-02-09T14:36:23.483Z,2.18
2023-02-09T14:39:04.606Z,2.16
2023-02-09T14:41:34.690Z,2.17
2023-02-09T14:44:04.537Z,2.07
2023-02-09T14:46:49.342Z,2.01
2023-02-09T14:49:19.404Z,1.93
2023-02-09T14:51:49.440Z,1.80
2023-02-09T14:54:26.565Z,1.67
2023-02-09T14:56:57.992Z,1.55
2023-02-09T14:59:27.026Z,1.45
2023-02-09T15:01:56.889Z,1.36
2023-02-09T15:04:25.729Z,1.29
2023-02-09T15:07:02.970Z,1.22
2023-02-09T15:09:38.114Z,1.12
2023-02-09T15:12:08.505Z,1.04
2023-02-09T15:14:44.162Z,0.95
2023-02-09T15:17:17.711Z,0.88
2023-02-09T15:19:46.741Z,0.78
2023-02-09T15:22:16.760Z,0.71
2023-02-09T15:24:49.548Z,0.60
2023-02-09T15:27:26.679Z,0.50
2023-02-09T15:29:59.330Z,0.45
2023-02-09T15:32:29.110Z,0.40
2023-02-09T15:34:57.546Z,0.34
2023-02-09T15:37:28.546Z,0.29
2023-02-09T15:40:03.085Z,0.22
2023-02-09T15:42:57.380Z,0.13
2023-02-09T15:45:46.265Z,0.01
2023-02-09T15:48:16.165Z,-0.09
2023-02-09T15:50:46.933Z,-0.15
2023-02-09T15:53:19.398Z,-0.22
2023-02-09T15:55:49.485Z,-0.29
2023-02-09T15:58:20.840Z,-0.36
2023-02-09T16:00:49.222Z,-0.41
2023-02-09T16:03:20.194Z,-0.46
2023-02-09T16:05:50.856Z,-0.50
2023-02-09T16:08:23.302Z,-0.53
2023-02-09T16:10:53.906Z,-0.57
2023-02-09T16:13:22.276Z,-0.61
2023-02-09T16:15:53.165Z,-0.67
2023-02-09T16:18:21.684Z,-0.74
2023-02-09T16:20:52.906Z,-0.79
2023-02-09T16:23:23.905Z,-0.83
2023-02-09T16:25:55.107Z,-0.84
2023-02-09T16:28:23.620Z,-0.87
2023-02-09T16:30:54.551Z,-0.90
2023-02-09T16:33:25.272Z,-0.94
2023-02-09T16:35:56.624Z,-0.97
2023-02-09T16:38:26.820Z,-0.99
2023-02-09T16:40:57.400Z,-1.02
2023-02-09T16:43:25.930Z,-1.03
2023-02-09T16:46:03.232Z,-1.06
2023-02-09T16:48:35.088Z,-1.09
2023-02-09T16:51:03.766Z,-1.13
2023-02-09T16:53:34.622Z,-1.18
2023-02-09T16:56:10.225Z,-1.23
2023-02-09T16:58:39.683Z,-1.30
2023-02-09T17:01:14.270Z,-1.36
2023-02-09T17:03:44.397Z,-1.40
2023-02-09T17:06:17.460Z,-1.44
2023-02-09T17:08:46.208Z,-1.47
2023-02-09T17:11:19.187Z,-1.52
2023-02-09T17:13:48.460Z,-1.56
2023-02-09T17:16:20.068Z,-1.58
2023-02-09T17:18:51.598Z,-1.65
2023-02-09T17:21:23.444Z,-1.69
2023-02-09T17:23:51.951Z,-1.72
2023-02-09T17:26:22.512Z,-1.76
2023-02-09T17:28:51.222Z,-1.80
2023-02-09T17:31:23.440Z,-1.81
2023-02-09T17:33:54.104Z,-1.82
2023-02-09T17:36:28.062Z,-1.84
2023-02-09T17:38:58.735Z,-1.87
2023-02-09T17:41:32.639Z,-1.84
2023-02-09T17:44:22.445Z,-1.86
2023-02-09T17:46:57.773Z,-1.89
2023-02-09T17:49:26.552Z,-1.91
2023-02-09T17:51:55.071Z,-1.94
2023-02-09T17:54:23.516Z,-1.94
2023-02-09T17:56:54.096Z,-1.95
2023-02-09T17:59:22.648Z,-1.98
2023-02-09T18:01:51.306Z,-1.97
2023-02-09T18:04:27.434Z,-2.00
2023-02-09T18:06:57.764Z,-2.01
2023-02-09T18:09:26.257Z,-2.02
2023-02-09T18:12:02.254Z,-2.03
2023-02-09T18:14:32.602Z,-2.04
2023-02-09T18:17:01.443Z,-2.06
2023-02-09T18:19:30.006Z,-2.05
2023-02-09T18:22:01.076Z,-2.09
2023-02-09T18:24:30.741Z,-2.13
2023-02-09T18:27:00.905Z,-2.16
2023-02-09T18:29:30.384Z,-2.17
2023-02-09T18:31:59.212Z,-2.19
2023-02-09T18:34:28.495Z,-2.19
2023-02-09T18:36:56.944Z,-2.20
2023-02-09T18:39:25.342Z,-2.19
2023-02-09T18:41:55.338Z,-2.21
2023-02-09T18:44:29.498Z,-2.21
2023-02-09T18:47:00.527Z,-2.23
2023-02-09T18:49:29.466Z,-2.27
2023-02-09T18:51:59.492Z,-2.27
2023-02-09T18:54:29.050Z,-2.30
2023-02-09T18:56:57.606Z,-2.30
2023-02-09T18:59:30.665Z,-2.30
2023-02-09T19:01:59.654Z,-2.30
2023-02-09T19:04:29.125Z,-2.31
2023-02-09T19:06:59.351Z,-2.32
2023-02-09T19:09:28.805Z,-2.34
2023-02-09T19:11:59.780Z,-2.38
2023-02-09T19:14:40.734Z,-2.45
2023-02-09T19:17:19.768Z,-2.47
2023-02-09T19:19:56.252Z,-2.46
2023-02-09T19:22:26.388Z,-2.47
2023-02-09T19:24:56.938Z,-2.46
2023-02-09T19:27:29.808Z,-2.46
2023-02-09T19:30:01.241Z,-2.48
2023-02-09T19:32:33.943Z,-2.51
2023-02-09T19:35:05.611Z,-2.53
2023-02-09T19:37:36.840Z,-2.54
2023-02-09T19:40:18.358Z,-2.57
2023-02-09T19:42:48.975Z,-2.61
2023-02-09T19:45:19.111Z,-2.62
2023-02-09T19:47:47.432Z,-2.57
2023-02-09T19:50:16.863Z,-2.54
2023-02-09T19:52:49.577Z,-2.53
2023-02-09T19:55:18.453Z,-2.55
2023-02-09T19:57:47.036Z,-2.58
2023-02-09T20:00:19.256Z,-2.63
2023-02-09T20:02:48.540Z,-2.56
2023-02-09T20:05:18.868Z,-2.56
2023-02-09T20:07:48.971Z,-2.50
2023-02-09T20:10:17.708Z,-2.52
2023-02-09T20:12:46.779Z,-2.54
2023-02-09T20:15:15.197Z,-2.54
2023-02-09T20:20:13.736Z,-2.58
2023-02-09T20:22:42.200Z,-2.58
2023-02-09T20:25:11.630Z,-2.59
2023-02-09T20:27:41.090Z,-2.59
2023-02-09T20:30:11.152Z,-2.62
2023-02-09T20:32:39.668Z,-2.63
2023-02-09T20:35:12.256Z,-2.63
2023-02-09T20:37:40.628Z,-2.65
2023-02-09T20:40:11.458Z,-2.67
2023-02-09T20:42:57.826Z,-2.64
2023-02-09T20:45:44.014Z,-2.58
2023-02-09T20:48:14.071Z,-2.48
2023-02-09T20:50:45.379Z,-2.41
2023-02-09T20:53:14.318Z,-2.37
2023-02-09T20:55:43.508Z,-2.41
2023-02-09T20:58:13.709Z,-2.42
2023-02-09T21:00:42.558Z,-2.48
2023-02-09T21:03:11.304Z,-2.49
2023-02-09T21:05:39.909Z,-2.52
2023-02-09T21:08:09.905Z,-2.58
2023-02-09T21:10:39.079Z,-2.53
2023-02-09T21:13:10.688Z,-2.51
2023-02-09T21:15:43.225Z,-2.41
2023-02-09T21:18:11.665Z,-2.42
2023-02-09T21:20:40.188Z,-2.36
2023-02-09T21:23:09.935Z,-2.32
2023-02-09T21:25:38.073Z,-2.33
2023-02-09T21:28:07.150Z,-2.32
2023-02-09T21:30:35.523Z,-2.27
2023-02-09T21:33:03.928Z,-2.24
2023-02-09T21:35:32.613Z,-2.18
2023-02-09T21:38:01.014Z,-2.14
2023-02-09T21:40:30.736Z,-2.12
2023-02-09T21:42:59.290Z,-2.05
2023-02-09T21:45:27.845Z,-2.06
2023-02-09T21:47:56.103Z,-2.13
2023-02-09T21:50:24.551Z,-2.19
2023-02-09T21:52:54.757Z,-2.17
2023-02-09T21:55:23.082Z,-2.19
2023-02-09T21:57:52.755Z,-2.15
2023-02-09T22:00:21.743Z,-2.11
2023-02-09T22:02:53.398Z,-2.16
2023-02-09T22:05:22.136Z,-2.10
2023-02-09T22:07:50.986Z,-2.10
2023-02-09T22:10:19.496Z,-2.14
2023-02-09T22:12:48.110Z,-2.15
2023-02-09T22:15:19.292Z,-2.11
2023-02-09T22:17:48.427Z,-2.11
2023-02-09T22:20:16.879Z,-2.08
2023-02-09T22:22:46.280Z,-2.09
2023-02-09T22:25:14.482Z,-2.06
2023-02-09T22:27:43.348Z,-2.05
2023-02-09T22:30:12.912Z,-2.05
2023-02-09T22:32:43.383Z,-2.09
2023-02-09T22:35:11.765Z,-2.10
2023-02-09T22:37:40.226Z,-2.08
2023-02-09T22:40:09.431Z,-2.02
2023-02-09T22:42:37.786Z,-1.89
2023-02-09T22:45:07.496Z,-1.70
2023-02-09T22:47:36.236Z,-1.59
2023-02-09T22:50:06.690Z,-1.52
2023-02-09T22:52:35.278Z,-1.39
2023-02-09T22:55:03.678Z,-1.32
2023-02-09T22:57:32.297Z,-1.24
2023-02-09T23:00:00.580Z,-1.17
2023-02-09T23:02:29.326Z,-1.11
2023-02-09T23:04:57.487Z,-1.02
2023-02-09T23:07:27.666Z,-0.97
2023-02-09T23:09:55.947Z,-0.92
2023-02-09T23:12:24.424Z,-0.86
2023-02-09T23:14:54.740Z,-0.83
2023-02-09T23:17:23.179Z,-0.81
2023-02-09T23:19:51.479Z,-0.80
2023-02-09T23:22:20.477Z,-0.84
2023-02-09T23:24:50.262Z,-0.88
2023-02-09T23:27:19.464Z,-0.86
2023-02-09T23:29:48.050Z,-0.87
2023-02-09T23:32:17.072Z,-0.86
2023-02-09T23:34:45.881Z,-0.82
2023-02-09T23:37:19.171Z,-0.81
2023-02-09T23:40:04.673Z,-0.75
2023-02-09T23:42:33.507Z,-0.75
2023-02-09T23:45:02.341Z,-0.70
2023-02-09T23:47:30.538Z,-0.69
2023-02-09T23:49:58.891Z,-0.69
2023-02-09T23:52:27.537Z,-0.70
2023-02-09T23:54:56.255Z,-0.68
2023-02-09T23:57:26.464Z,-0.66
2023-02-09T23:59:54.810Z,-0.67
